sensor_id;sensor_type;location;lat;lon;timestamp;pressure;altitude;pressure_sealevel;temperature;humidity
56174;BME280;42058;52.308;20.924;2023-07-02T00:02:02;99402.73;;;19.82;100.00
56174;BME280;42058;52.308;20.924;2023-07-02T00:05:06;99402.70;;;19.80;100.00
56174;BME280;42058;52.308;20.924;2023-07-02T00:08:32;99399.33;;;19.77;100.00
56174;BME280;42058;52.308;20.924;2023-07-02T00:14:46;99395.14;;;19.71;100.00
56174;BME280;42058;52.308;20.924;2023-07-02T00:20:35;99393.08;;;19.66;100.00
56174;BME280;42058;52.308;20.924;2023-07-02T00:23:36;99391.01;;;19.63;100.00
56174;BME280;42058;52.308;20.924;2023-07-02T00:26:51;99389.83;;;19.60;100.00
56174;BME280;42058;52.308;20.924;2023-07-02T00:29:36;99393.00;;;19.58;100.00
56174;BME280;42058;52.308;20.924;2023-07-02T00:39:25;99396.14;;;19.50;100.00
56174;BME280;42058;52.308;20.924;2023-07-02T00:42:20;99395.45;;;19.48;100.00
56174;BME280;42058;52.308;20.924;2023-07-02T00:45:03;99392.45;;;19.45;100.00
56174;BME280;42058;52.308;20.924;2023-07-02T00:47:43;99393.09;;;19.44;100.00
56174;BME280;42058;52.308;20.924;2023-07-02T00:51:13;99393.66;;;19.41;100.00
56174;BME280;42058;52.308;20.924;2023-07-02T00:58:15;99383.84;;;19.35;100.00
56174;BME280;42058;52.308;20.924;2023-07-02T01:01:45;99382.66;;;19.32;100.00
56174;BME280;42058;52.308;20.924;2023-07-02T01:06:05;99376.56;;;19.28;100.00
56174;BME280;42058;52.308;20.924;2023-07-02T01:08:33;99377.86;;;19.25;100.00
56174;BME280;42058;52.308;20.924;2023-07-02T01:11:01;99378.23;;;19.23;100.00
56174;BME280;42058;52.308;20.924;2023-07-02T01:13:29;99378.73;;;19.19;100.00
56174;BME280;42058;52.308;20.924;2023-07-02T01:15:56;99380.36;;;19.16;100.00
56174;BME280;42058;52.308;20.924;2023-07-02T01:18:25;99381.00;;;19.13;100.00
56174;BME280;42058;52.308;20.924;2023-07-02T01:20:53;99377.71;;;19.09;100.00
56174;BME280;42058;52.308;20.924;2023-07-02T01:23:21;99375.60;;;19.07;100.00
56174;BME280;42058;52.308;20.924;2023-07-02T01:25:51;99372.66;;;19.03;100.00
56174;BME280;42058;52.308;20.924;2023-07-02T01:28:19;99368.45;;;19.00;100.00
56174;BME280;42058;52.308;20.924;2023-07-02T01:30:47;99365.10;;;18.97;100.00
56174;BME280;42058;52.308;20.924;2023-07-02T01:33:15;99367.66;;;18.94;100.00
56174;BME280;42058;52.308;20.924;2023-07-02T01:35:45;99369.80;;;18.92;100.00
56174;BME280;42058;52.308;20.924;2023-07-02T01:38:14;99364.70;;;18.89;100.00
56174;BME280;42058;52.308;20.924;2023-07-02T01:40:42;99362.19;;;18.87;100.00
56174;BME280;42058;52.308;20.924;2023-07-02T01:43:10;99359.88;;;18.85;100.00
56174;BME280;42058;52.308;20.924;2023-07-02T01:45:38;99360.89;;;18.83;100.00
56174;BME280;42058;52.308;20.924;2023-07-02T01:48:06;99358.25;;;18.81;100.00
56174;BME280;42058;52.308;20.924;2023-07-02T01:50:34;99354.53;;;18.80;100.00
56174;BME280;42058;52.308;20.924;2023-07-02T01:53:01;99355.94;;;18.78;100.00
56174;BME280;42058;52.308;20.924;2023-07-02T01:55:29;99353.71;;;18.77;100.00
56174;BME280;42058;52.308;20.924;2023-07-02T01:57:57;99356.41;;;18.76;100.00
56174;BME280;42058;52.308;20.924;2023-07-02T02:00:24;99353.45;;;18.76;100.00
56174;BME280;42058;52.308;20.924;2023-07-02T02:03:00;99351.41;;;18.75;100.00
56174;BME280;42058;52.308;20.924;2023-07-02T02:05:28;99350.58;;;18.74;100.00
56174;BME280;42058;52.308;20.924;2023-07-02T02:07:56;99353.49;;;18.73;100.00
